sensor_id;sensor_type;location;lat;lon;timestamp;P1;durP1;ratioP1;P2;durP2;ratioP2
4055;SDS011;2043;52.184;8.690;2023-04-24T00:01:13;4.17;;;1.73;;
4055;SDS011;2043;52.184;8.690;2023-04-24T00:03:41;3.33;;;1.73;;
4055;SDS011;2043;52.184;8.690;2023-04-24T00:06:08;2.53;;;1.33;;
4055;SDS011;2043;52.184;8.690;2023-04-24T00:08:35;3.10;;;1.60;;
4055;SDS011;2043;52.184;8.690;2023-04-24T00:11:02;3.17;;;1.30;;
4055;SDS011;2043;52.184;8.690;2023-04-24T00:13:29;2.53;;;1.20;;
4055;SDS011;2043;52.184;8.690;2023-04-24T00:15:56;2.50;;;1.30;;
4055;SDS011;2043;52.184;8.690;2023-04-24T00:18:22;3.40;;;1.47;;
4055;SDS011;2043;52.184;8.690;2023-04-24T00:20:49;2.70;;;1.20;;
4055;SDS011;2043;52.184;8.690;2023-04-24T00:23:16;2.30;;;1.17;;
4055;SDS011;2043;52.184;8.690;2023-04-24T00:25:43;2.40;;;1.10;;
4055;SDS011;2043;52.184;8.690;2023-04-24T00:28:10;3.13;;;1.10;;
4055;SDS011;2043;52.184;8.690;2023-04-24T00:30:37;3.10;;;1.23;;
4055;SDS011;2043;52.184;8.690;2023-04-24T00:33:04;2.73;;;1.03;;
4055;SDS011;2043;52.184;8.690;2023-04-24T00:35:31;4.27;;;1.37;;
4055;SDS011;2043;52.184;8.690;2023-04-24T00:37:57;2.63;;;1.17;;
4055;SDS011;2043;52.184;8.690;2023-04-24T00:40:24;2.47;;;1.20;;
4055;SDS011;2043;52.184;8.690;2023-04-24T00:42:51;3.00;;;0.93;;
4055;SDS011;2043;52.184;8.690;2023-04-24T00:45:18;4.10;;;1.37;;
4055;SDS011;2043;52.184;8.690;2023-04-24T00:47:45;6.00;;;2.53;;
4055;SDS011;2043;52.184;8.690;2023-04-24T00:50:14;4.60;;;1.30;;
4055;SDS011;2043;52.184;8.690;2023-04-24T00:52:42;2.87;;;1.30;;
4055;SDS011;2043;52.184;8.690;2023-04-24T00:55:09;2.50;;;1.00;;
4055;SDS011;2043;52.184;8.690;2023-04-24T00:57:37;3.70;;;1.30;;
4055;SDS011;2043;52.184;8.690;2023-04-24T01:00:05;3.00;;;1.20;;
4055;SDS011;2043;52.184;8.690;2023-04-24T01:02:37;4.33;;;1.20;;
4055;SDS011;2043;52.184;8.690;2023-04-24T01:05:07;2.93;;;1.20;;
4055;SDS011;2043;52.184;8.690;2023-04-24T01:07:34;2.43;;;1.20;;
4055;SDS011;2043;52.184;8.690;2023-04-24T01:10:01;2.83;;;1.27;;
4055;SDS011;2043;52.184;8.690;2023-04-24T01:12:28;5.60;;;1.30;;
4055;SDS011;2043;52.184;8.690;2023-04-24T01:14:55;2.93;;;1.30;;
4055;SDS011;2043;52.184;8.690;2023-04-24T01:17:22;3.33;;;1.30;;
4055;SDS011;2043;52.184;8.690;2023-04-24T01:19:49;3.47;;;1.57;;
4055;SDS011;2043;52.184;8.690;2023-04-24T01:22:19;6.67;;;1.40;;
4055;SDS011;2043;52.184;8.690;2023-04-24T01:24:46;2.60;;;1.47;;
4055;SDS011;2043;52.184;8.690;2023-04-24T01:27:13;3.93;;;1.50;;
4055;SDS011;2043;52.184;8.690;2023-04-24T01:29:41;2.60;;;1.30;;
4055;SDS011;2043;52.184;8.690;2023-04-24T01:32:08;5.40;;;1.50;;
4055;SDS011;2043;52.184;8.690;2023-04-24T01:34:35;2.90;;;1.60;;
4055;SDS011;2043;52.184;8.690;2023-04-24T01:37:02;2.63;;;1.40;;
4055;SDS011;2043;52.184;8.690;2023-04-24T01:39:28;6.10;;;1.50;;
4055;SDS011;2043;52.184;8.690;2023-04-24T01:41:55;3.10;;;1.40;;
4055;SDS011;2043;52.184;8.690;2023-04-24T01:44:23;3.30;;;1.63;;
4055;SDS011;2043;52.184;8.690;2023-04-24T01:46:50;2.90;;;1.33;;
4055;SDS011;2043;52.184;8.690;2023-04-24T01:49:17;3.70;;;1.53;;
4055;SDS011;2043;52.184;8.690;2023-04-24T01:51:44;3.40;;;1.43;;
4055;SDS011;2043;52.184;8.690;2023-04-24T01:54:11;3.10;;;1.40;;
4055;SDS011;2043;52.184;8.690;2023-04-24T01:56:42;3.77;;;1.97;;
4055;SDS011;2043;52.184;8.690;2023-04-24T01:59:10;2.97;;;1.60;;
4055;SDS011;2043;52.184;8.690;2023-04-24T02:01:38;3.63;;;1.60;;
4055;SDS011;2043;52.184;8.690;2023-04-24T02:04:06;2.90;;;1.80;;
4055;SDS011;2043;52.184;8.690;2023-04-24T02:06:34;3.23;;;1.73;;
4055;SDS011;2043;52.184;8.690;2023-04-24T02:09:01;3.30;;;1.80;;
4055;SDS011;2043;52.184;8.690;2023-04-24T02:11:29;4.47;;;1.53;;
4055;SDS011;2043;52.184;8.690;2023-04-24T02:13:56;5.23;;;1.97;;
4055;SDS011;2043;52.184;8.690;2023-04-24T02:16:23;3.27;;;1.80;;
4055;SDS011;2043;52.184;8.690;2023-04-24T02:18:50;2.50;;;1.40;;
4055;SDS011;2043;52.184;8.690;2023-04-24T02:21:17;4.00;;;1.93;;
4055;SDS011;2043;52.184;8.690;2023-04-24T02:23:43;4.00;;;1.73;;
4055;SDS011;2043;52.184;8.690;2023-04-24T02:26:10;3.30;;;1.50;;
4055;SDS011;2043;52.184;8.690;2023-04-24T02:28:37;2.93;;;1.60;;
4055;SDS011;2043;52.184;8.690;2023-04-24T02:31:04;4.30;;;1.80;;
4055;SDS011;2043;52.184;8.690;2023-04-24T02:33:32;3.17;;;2.00;;
4055;SDS011;2043;52.184;8.690;2023-04-24T02:35:58;3.63;;;1.93;;
4055;SDS011;2043;52.184;8.690;2023-04-24T02:38:25;3.70;;;2.23;;
4055;SDS011;2043;52.184;8.690;2023-04-24T02:40:52;3.23;;;1.80;;
4055;SDS011;2043;52.184;8.690;2023-04-24T02:43:19;6.37;;;2.33;;
4055;SDS011;2043;52.184;8.690;2023-04-24T02:45:46;4.50;;;2.30;;
4055;SDS011;2043;52.184;8.690;2023-04-24T02:48:13;4.77;;;2.33;;
4055;SDS011;2043;52.184;8.690;2023-04-24T02:50:40;6.57;;;2.20;;
4055;SDS011;2043;52.184;8.690;2023-04-24T02:53:07;5.50;;;2.17;;
4055;SDS011;2043;52.184;8.690;2023-04-24T02:55:33;4.87;;;2.33;;
4055;SDS011;2043;52.184;8.690;2023-04-24T02:58:00;4.73;;;2.63;;
4055;SDS011;2043;52.184;8.690;2023-04-24T03:00:27;10.60;;;3.30;;
4055;SDS011;2043;52.184;8.690;2023-04-24T03:02:54;3.60;;;2.43;;
4055;SDS011;2043;52.184;8.690;2023-04-24T03:05:21;4.07;;;2.40;;
4055;SDS011;2043;52.184;8.690;2023-04-24T03:07:48;7.10;;;3.00;;
4055;SDS011;2043;52.184;8.690;2023-04-24T03:10:15;4.00;;;2.50;;
4055;SDS011;2043;52.184;8.690;2023-04-24T03:12:42;4.10;;;2.40;;
4055;SDS011;2043;52.184;8.690;2023-04-24T03:15:09;5.20;;;2.37;;
4055;SDS011;2043;52.184;8.690;2023-04-24T03:17:36;6.90;;;2.30;;
4055;SDS011;2043;52.184;8.690;2023-04-24T03:20:03;8.70;;;2.53;;
4055;SDS011;2043;52.184;8.690;2023-04-24T03:22:31;4.20;;;2.37;;
4055;SDS011;2043;52.184;8.690;2023-04-24T03:25:00;5.00;;;2.50;;
4055;SDS011;2043;52.184;8.690;2023-04-24T03:27:27;4.10;;;2.50;;
4055;SDS011;2043;52.184;8.690;2023-04-24T03:29:53;5.40;;;2.70;;
4055;SDS011;2043;52.184;8.690;2023-04-24T03:32:21;4.93;;;2.47;;
4055;SDS011;2043;52.184;8.690;2023-04-24T03:34:49;4.43;;;2.23;;
4055;SDS011;2043;52.184;8.690;2023-04-24T03:37:16;6.53;;;2.53;;
4055;SDS011;2043;52.184;8.690;2023-04-24T03:39:43;4.50;;;2.53;;
4055;SDS011;2043;52.184;8.690;2023-04-24T03:42:10;3.77;;;2.07;;
4055;SDS011;2043;52.184;8.690;2023-04-24T03:44:37;7.13;;;2.57;;
4055;SDS011;2043;52.184;8.690;2023-04-24T03:47:03;6.60;;;2.10;;
4055;SDS011;2043;52.184;8.690;2023-04-24T03:49:30;6.07;;;2.20;;
4055;SDS011;2043;52.184;8.690;2023-04-24T03:51:57;3.83;;;2.10;;
4055;SDS011;2043;52.184;8.690;2023-04-24T03:54:24;5.40;;;2.60;;
4055;SDS011;2043;52.184;8.690;2023-04-24T03:56:52;6.00;;;2.30;;
4055;SDS011;2043;52.184;8.690;2023-04-24T03:59:19;4.10;;;2.60;;
4055;SDS011;2043;52.184;8.690;2023-04-24T04:01:46;10.03;;;2.50;;
4055;SDS011;2043;52.184;8.690;2023-04-24T04:04:12;3.83;;;2.10;;
4055;SDS011;2043;52.184;8.690;2023-04-24T04:06:40;4.73;;;2.53;;
4055;SDS011;2043;52.184;8.690;2023-04-24T04:09:06;7.87;;;3.43;;
4055;SDS011;2043;52.184;8.690;2023-04-24T04:11:34;4.80;;;2.67;;
4055;SDS011;2043;52.184;8.690;2023-04-24T04:14:01;5.50;;;2.73;;
4055;SDS011;2043;52.184;8.690;2023-04-24T04:16:28;7.00;;;2.60;;
4055;SDS011;2043;52.184;8.690;2023-04-24T04:18:55;5.40;;;2.80;;
4055;SDS011;2043;52.184;8.690;2023-04-24T04:21:22;8.73;;;2.60;;
4055;SDS011;2043;52.184;8.690;2023-04-24T04:23:48;7.10;;;3.20;;
4055;SDS011;2043;52.184;8.690;2023-04-24T04:26:15;5.00;;;2.80;;
4055;SDS011;2043;52.184;8.690;2023-04-24T04:28:42;4.80;;;2.67;;
4055;SDS011;2043;52.184;8.690;2023-04-24T04:31:10;4.70;;;2.63;;
4055;SDS011;2043;52.184;8.690;2023-04-24T04:33:37;5.30;;;2.50;;
4055;SDS011;2043;52.184;8.690;2023-04-24T04:36:05;4.27;;;2.43;;
4055;SDS011;2043;52.184;8.690;2023-04-24T04:38:32;5.03;;;2.93;;
4055;SDS011;2043;52.184;8.690;2023-04-24T04:40:59;7.70;;;3.50;;
4055;SDS011;2043;52.184;8.690;2023-04-24T04:43:26;5.03;;;2.80;;
4055;SDS011;2043;52.184;8.690;2023-04-24T04:45:53;4.70;;;3.03;;
4055;SDS011;2043;52.184;8.690;2023-04-24T04:48:22;4.53;;;2.93;;
4055;SDS011;2043;52.184;8.690;2023-04-24T04:50:49;6.70;;;2.97;;
4055;SDS011;2043;52.184;8.690;2023-04-24T04:53:16;5.83;;;3.00;;
4055;SDS011;2043;52.184;8.690;2023-04-24T04:55:42;5.80;;;3.10;;
4055;SDS011;2043;52.184;8.690;2023-04-24T04:58:09;4.83;;;3.20;;
4055;SDS011;2043;52.184;8.690;2023-04-24T05:00:36;4.83;;;3.30;;
4055;SDS011;2043;52.184;8.690;2023-04-24T05:03:03;5.37;;;3.40;;
4055;SDS011;2043;52.184;8.690;2023-04-24T05:05:46;5.80;;;3.40;;
4055;SDS011;2043;52.184;8.690;2023-04-24T05:08:12;7.70;;;4.10;;
4055;SDS011;2043;52.184;8.690;2023-04-24T05:10:52;6.40;;;4.33;;
4055;SDS011;2043;52.184;8.690;2023-04-24T05:13:19;6.37;;;4.27;;
4055;SDS011;2043;52.184;8.690;2023-04-24T05:16:01;7.90;;;5.23;;
4055;SDS011;2043;52.184;8.690;2023-04-24T05:18:28;9.50;;;5.67;;
4055;SDS011;2043;52.184;8.690;2023-04-24T05:20:54;11.17;;;6.20;;
4055;SDS011;2043;52.184;8.690;2023-04-24T05:23:21;14.10;;;6.50;;
4055;SDS011;2043;52.184;8.690;2023-04-24T05:25:48;14.03;;;7.07;;
4055;SDS011;2043;52.184;8.690;2023-04-24T05:28:15;10.87;;;6.77;;
4055;SDS011;2043;52.184;8.690;2023-04-24T05:30:42;10.97;;;7.27;;
4055;SDS011;2043;52.184;8.690;2023-04-24T05:33:08;13.40;;;8.60;;
4055;SDS011;2043;52.184;8.690;2023-04-24T05:35:36;15.77;;;9.50;;
4055;SDS011;2043;52.184;8.690;2023-04-24T05:38:02;16.33;;;9.70;;
4055;SDS011;2043;52.184;8.690;2023-04-24T05:40:29;15.03;;;9.77;;
4055;SDS011;2043;52.184;8.690;2023-04-24T05:42:56;16.00;;;10.50;;
4055;SDS011;2043;52.184;8.690;2023-04-24T05:45:23;21.33;;;9.97;;
4055;SDS011;2043;52.184;8.690;2023-04-24T05:47:49;15.73;;;10.70;;
4055;SDS011;2043;52.184;8.690;2023-04-24T05:50:18;17.80;;;10.07;;
4055;SDS011;2043;52.184;8.690;2023-04-24T05:52:45;16.77;;;9.90;;
4055;SDS011;2043;52.184;8.690;2023-04-24T05:55:12;17.50;;;10.30;;
4055;SDS011;2043;52.184;8.690;2023-04-24T05:57:39;29.10;;;11.13;;
4055;SDS011;2043;52.184;8.690;2023-04-24T06:00:06;22.27;;;10.80;;
4055;SDS011;2043;52.184;8.690;2023-04-24T06:02:34;18.53;;;10.17;;
4055;SDS011;2043;52.184;8.690;2023-04-24T06:05:01;16.40;;;11.20;;
4055;SDS011;2043;52.184;8.690;2023-04-24T06:07:28;18.37;;;10.83;;
4055;SDS011;2043;52.184;8.690;2023-04-24T06:09:55;21.23;;;11.43;;
4055;SDS011;2043;52.184;8.690;2023-04-24T06:12:22;20.90;;;11.17;;
4055;SDS011;2043;52.184;8.690;2023-04-24T06:14:49;18.20;;;11.47;;
4055;SDS011;2043;52.184;8.690;2023-04-24T06:17:16;17.70;;;10.50;;
4055;SDS011;2043;52.184;8.690;2023-04-24T06:22:25;18.97;;;11.00;;
4055;SDS011;2043;52.184;8.690;2023-04-24T06:24:52;19.07;;;10.87;;
4055;SDS011;2043;52.184;8.690;2023-04-24T06:27:19;17.97;;;11.47;;
4055;SDS011;2043;52.184;8.690;2023-04-24T06:29:46;22.60;;;12.60;;
4055;SDS011;2043;52.184;8.690;2023-04-24T06:32:18;22.60;;;12.60;;
4055;SDS011;2043;52.184;8.690;2023-04-24T06:34:46;21.73;;;12.27;;
4055;SDS011;2043;52.184;8.690;2023-04-24T06:37:13;21.30;;;12.70;;
4055;SDS011;2043;52.184;8.690;2023-04-24T06:39:40;18.90;;;12.53;;
4055;SDS011;2043;52.184;8.690;2023-04-24T06:42:08;26.43;;;12.73;;
4055;SDS011;2043;52.184;8.690;2023-04-24T06:44:35;18.67;;;11.60;;
4055;SDS011;2043;52.184;8.690;2023-04-24T06:47:07;21.27;;;12.17;;
4055;SDS011;2043;52.184;8.690;2023-04-24T06:49:38;26.90;;;13.00;;
4055;SDS011;2043;52.184;8.690;2023-04-24T06:52:05;19.27;;;12.53;;
4055;SDS011;2043;52.184;8.690;2023-04-24T06:54:33;21.03;;;12.63;;
4055;SDS011;2043;52.184;8.690;2023-04-24T06:57:00;23.33;;;13.60;;
4055;SDS011;2043;52.184;8.690;2023-04-24T06:59:27;21.77;;;12.77;;
4055;SDS011;2043;52.184;8.690;2023-04-24T07:01:54;21.63;;;12.90;;
4055;SDS011;2043;52.184;8.690;2023-04-24T07:04:21;18.87;;;12.47;;
4055;SDS011;2043;52.184;8.690;2023-04-24T07:06:49;22.30;;;13.57;;
4055;SDS011;2043;52.184;8.690;2023-04-24T07:09:17;21.83;;;13.03;;
4055;SDS011;2043;52.184;8.690;2023-04-24T07:11:46;22.73;;;12.70;;
4055;SDS011;2043;52.184;8.690;2023-04-24T07:14:14;21.93;;;13.40;;
4055;SDS011;2043;52.184;8.690;2023-04-24T07:16:41;21.03;;;13.53;;
4055;SDS011;2043;52.184;8.690;2023-04-24T07:19:09;25.50;;;12.87;;
4055;SDS011;2043;52.184;8.690;2023-04-24T07:21:36;21.83;;;13.93;;
4055;SDS011;2043;52.184;8.690;2023-04-24T07:24:02;27.37;;;13.23;;
4055;SDS011;2043;52.184;8.690;2023-04-24T07:26:30;22.17;;;13.73;;
4055;SDS011;2043;52.184;8.690;2023-04-24T07:28:57;24.27;;;14.30;;
4055;SDS011;2043;52.184;8.690;2023-04-24T07:31:24;22.00;;;12.70;;
4055;SDS011;2043;52.184;8.690;2023-04-24T07:33:51;21.77;;;13.30;;
4055;SDS011;2043;52.184;8.690;2023-04-24T07:36:18;20.53;;;13.40;;
4055;SDS011;2043;52.184;8.690;2023-04-24T07:38:45;22.43;;;13.70;;
4055;SDS011;2043;52.184;8.690;2023-04-24T07:41:13;22.27;;;13.57;;
4055;SDS011;2043;52.184;8.690;2023-04-24T07:43:40;23.43;;;13.30;;
4055;SDS011;2043;52.184;8.690;2023-04-24T07:46:10;21.30;;;13.53;;
4055;SDS011;2043;52.184;8.690;2023-04-24T07:48:37;19.17;;;12.40;;
4055;SDS011;2043;52.184;8.690;2023-04-24T07:51:04;20.70;;;12.13;;
4055;SDS011;2043;52.184;8.690;2023-04-24T07:53:31;18.07;;;12.27;;
4055;SDS011;2043;52.184;8.690;2023-04-24T07:55:58;17.83;;;11.77;;
4055;SDS011;2043;52.184;8.690;2023-04-24T07:58:24;18.20;;;11.10;;
4055;SDS011;2043;52.184;8.690;2023-04-24T08:00:51;17.97;;;11.40;;
4055;SDS011;2043;52.184;8.690;2023-04-24T08:03:18;18.33;;;10.23;;
4055;SDS011;2043;52.184;8.690;2023-04-24T08:05:46;18.23;;;10.40;;
4055;SDS011;2043;52.184;8.690;2023-04-24T08:08:13;15.17;;;10.40;;
4055;SDS011;2043;52.184;8.690;2023-04-24T08:10:40;13.03;;;9.03;;
4055;SDS011;2043;52.184;8.690;2023-04-24T08:13:07;15.13;;;9.90;;
4055;SDS011;2043;52.184;8.690;2023-04-24T08:15:34;12.53;;;8.10;;
4055;SDS011;2043;52.184;8.690;2023-04-24T08:18:01;18.23;;;8.90;;
4055;SDS011;2043;52.184;8.690;2023-04-24T08:20:28;17.03;;;8.67;;
4055;SDS011;2043;52.184;8.690;2023-04-24T08:22:55;13.10;;;8.30;;
4055;SDS011;2043;52.184;8.690;2023-04-24T08:25:22;14.70;;;7.90;;
4055;SDS011;2043;52.184;8.690;2023-04-24T08:27:51;15.43;;;9.27;;
4055;SDS011;2043;52.184;8.690;2023-04-24T08:30:18;13.83;;;8.63;;
4055;SDS011;2043;52.184;8.690;2023-04-24T08:32:45;11.57;;;8.07;;
4055;SDS011;2043;52.184;8.690;2023-04-24T08:35:12;12.33;;;7.80;;
4055;SDS011;2043;52.184;8.690;2023-04-24T08:37:38;13.67;;;8.10;;
4055;SDS011;2043;52.184;8.690;2023-04-24T08:40:06;11.93;;;8.50;;
4055;SDS011;2043;52.184;8.690;2023-04-24T08:42:43;16.87;;;8.73;;
4055;SDS011;2043;52.184;8.690;2023-04-24T08:45:11;11.47;;;7.80;;
4055;SDS011;2043;52.184;8.690;2023-04-24T08:47:40;13.33;;;8.40;;
4055;SDS011;2043;52.184;8.690;2023-04-24T08:50:08;10.80;;;8.17;;
4055;SDS011;2043;52.184;8.690;2023-04-24T08:52:35;10.53;;;7.53;;
4055;SDS011;2043;52.184;8.690;2023-04-24T08:55:03;14.27;;;8.07;;
4055;SDS011;2043;52.184;8.690;2023-04-24T08:57:31;12.80;;;7.50;;
4055;SDS011;2043;52.184;8.690;2023-04-24T08:59:59;10.57;;;6.77;;
4055;SDS011;2043;52.184;8.690;2023-04-24T09:02:27;9.47;;;6.47;;
4055;SDS011;2043;52.184;8.690;2023-04-24T09:04:55;14.50;;;6.50;;
4055;SDS011;2043;52.184;8.690;2023-04-24T09:07:24;10.60;;;6.90;;
4055;SDS011;2043;52.184;8.690;2023-04-24T09:09:53;14.17;;;6.13;;
4055;SDS011;2043;52.184;8.690;2023-04-24T09:12:21;13.53;;;6.40;;
4055;SDS011;2043;52.184;8.690;2023-04-24T09:14:48;7.77;;;5.57;;
4055;SDS011;2043;52.184;8.690;2023-04-24T09:17:16;7.17;;;5.27;;
4055;SDS011;2043;52.184;8.690;2023-04-24T09:19:43;7.60;;;5.50;;
4055;SDS011;2043;52.184;8.690;2023-04-24T09:22:10;8.60;;;5.83;;
4055;SDS011;2043;52.184;8.690;2023-04-24T09:24:38;8.23;;;5.53;;
4055;SDS011;2043;52.184;8.690;2023-04-24T09:27:05;7.43;;;5.33;;
4055;SDS011;2043;52.184;8.690;2023-04-24T09:29:35;8.43;;;5.33;;
4055;SDS011;2043;52.184;8.690;2023-04-24T09:32:17;7.27;;;5.17;;
4055;SDS011;2043;52.184;8.690;2023-04-24T09:34:48;7.47;;;4.70;;
4055;SDS011;2043;52.184;8.690;2023-04-24T09:37:27;7.87;;;5.87;;
4055;SDS011;2043;52.184;8.690;2023-04-24T09:40:11;10.20;;;5.43;;
4055;SDS011;2043;52.184;8.690;2023-04-24T09:42:46;8.63;;;4.97;;
4055;SDS011;2043;52.184;8.690;2023-04-24T09:45:17;8.10;;;4.93;;
4055;SDS011;2043;52.184;8.690;2023-04-24T09:47:44;5.50;;;3.97;;
4055;SDS011;2043;52.184;8.690;2023-04-24T09:50:15;6.90;;;4.67;;
4055;SDS011;2043;52.184;8.690;2023-04-24T09:52:47;6.70;;;4.97;;
4055;SDS011;2043;52.184;8.690;2023-04-24T09:55:23;6.60;;;4.20;;
4055;SDS011;2043;52.184;8.690;2023-04-24T09:57:51;11.03;;;4.20;;
4055;SDS011;2043;52.184;8.690;2023-04-24T10:00:25;8.80;;;4.80;;
4055;SDS011;2043;52.184;8.690;2023-04-24T10:02:56;7.50;;;4.20;;
4055;SDS011;2043;52.184;8.690;2023-04-24T10:05:31;6.83;;;4.20;;
4055;SDS011;2043;52.184;8.690;2023-04-24T10:08:03;6.50;;;4.13;;
4055;SDS011;2043;52.184;8.690;2023-04-24T10:10:44;9.10;;;4.63;;
4055;SDS011;2043;52.184;8.690;2023-04-24T10:13:13;6.33;;;4.10;;
4055;SDS011;2043;52.184;8.690;2023-04-24T10:15:41;4.80;;;3.60;;
4055;SDS011;2043;52.184;8.690;2023-04-24T10:18:09;6.00;;;3.90;;
4055;SDS011;2043;52.184;8.690;2023-04-24T10:20:37;7.07;;;3.27;;
4055;SDS011;2043;52.184;8.690;2023-04-24T10:23:06;5.40;;;3.30;;
4055;SDS011;2043;52.184;8.690;2023-04-24T10:25:34;5.43;;;3.20;;
4055;SDS011;2043;52.184;8.690;2023-04-24T10:28:02;7.20;;;3.20;;
4055;SDS011;2043;52.184;8.690;2023-04-24T10:30:31;8.80;;;3.90;;
4055;SDS011;2043;52.184;8.690;2023-04-24T10:33:03;9.20;;;3.53;;
4055;SDS011;2043;52.184;8.690;2023-04-24T10:35:32;7.20;;;3.07;;
4055;SDS011;2043;52.184;8.690;2023-04-24T10:38:03;4.67;;;3.27;;
4055;SDS011;2043;52.184;8.690;2023-04-24T10:40:35;7.40;;;3.40;;
4055;SDS011;2043;52.184;8.690;2023-04-24T10:43:03;14.23;;;3.50;;
4055;SDS011;2043;52.184;8.690;2023-04-24T10:45:35;6.00;;;3.60;;
4055;SDS011;2043;52.184;8.690;2023-04-24T10:48:06;4.60;;;2.93;;
4055;SDS011;2043;52.184;8.690;2023-04-24T10:50:46;5.23;;;3.13;;
4055;SDS011;2043;52.184;8.690;2023-04-24T10:53:17;5.00;;;3.43;;
4055;SDS011;2043;52.184;8.690;2023-04-24T10:55:49;7.33;;;4.40;;
4055;SDS011;2043;52.184;8.690;2023-04-24T10:58:23;7.50;;;4.43;;
4055;SDS011;2043;52.184;8.690;2023-04-24T11:01:01;8.30;;;4.57;;
4055;SDS011;2043;52.184;8.690;2023-04-24T11:03:29;7.90;;;4.93;;
4055;SDS011;2043;52.184;8.690;2023-04-24T11:06:07;6.37;;;4.43;;
4055;SDS011;2043;52.184;8.690;2023-04-24T11:08:38;7.90;;;4.73;;
4055;SDS011;2043;52.184;8.690;2023-04-24T11:18:51;8.90;;;5.33;;
4055;SDS011;2043;52.184;8.690;2023-04-24T11:21:20;10.07;;;5.87;;
4055;SDS011;2043;52.184;8.690;2023-04-24T11:23:48;7.93;;;6.20;;
4055;SDS011;2043;52.184;8.690;2023-04-24T11:26:21;7.40;;;6.10;;
4055;SDS011;2043;52.184;8.690;2023-04-24T11:28:50;8.90;;;6.73;;
4055;SDS011;2043;52.184;8.690;2023-04-24T11:34:12;9.83;;;7.13;;
4055;SDS011;2043;52.184;8.690;2023-04-24T11:36:42;10.27;;;7.00;;
4055;SDS011;2043;52.184;8.690;2023-04-24T11:39:10;8.73;;;5.97;;
4055;SDS011;2043;52.184;8.690;2023-04-24T11:41:37;14.37;;;6.13;;
4055;SDS011;2043;52.184;8.690;2023-04-24T11:44:06;8.43;;;6.23;;
4055;SDS011;2043;52.184;8.690;2023-04-24T11:46:34;9.10;;;6.13;;
4055;SDS011;2043;52.184;8.690;2023-04-24T11:49:04;8.77;;;6.10;;
4055;SDS011;2043;52.184;8.690;2023-04-24T11:51:31;9.30;;;6.30;;
4055;SDS011;2043;52.184;8.690;2023-04-24T11:54:13;8.47;;;4.93;;
4055;SDS011;2043;52.184;8.690;2023-04-24T11:56:44;7.37;;;4.97;;
4055;SDS011;2043;52.184;8.690;2023-04-24T11:59:12;7.80;;;4.93;;
4055;SDS011;2043;52.184;8.690;2023-04-24T12:01:45;7.90;;;5.40;;
4055;SDS011;2043;52.184;8.690;2023-04-24T12:04:13;6.37;;;4.50;;
4055;SDS011;2043;52.184;8.690;2023-04-24T12:06:58;5.57;;;4.17;;
4055;SDS011;2043;52.184;8.690;2023-04-24T12:09:26;5.00;;;3.07;;
4055;SDS011;2043;52.184;8.690;2023-04-24T12:11:53;6.10;;;3.03;;
4055;SDS011;2043;52.184;8.690;2023-04-24T12:14:24;3.43;;;2.10;;
4055;SDS011;2043;52.184;8.690;2023-04-24T12:16:51;4.97;;;2.67;;
4055;SDS011;2043;52.184;8.690;2023-04-24T12:19:21;4.40;;;2.03;;
4055;SDS011;2043;52.184;8.690;2023-04-24T12:22:06;4.40;;;2.40;;
4055;SDS011;2043;52.184;8.690;2023-04-24T12:24:33;4.30;;;2.00;;
4055;SDS011;2043;52.184;8.690;2023-04-24T12:27:00;5.60;;;2.43;;
4055;SDS011;2043;52.184;8.690;2023-04-24T12:29:27;4.03;;;2.07;;
4055;SDS011;2043;52.184;8.690;2023-04-24T12:31:54;5.63;;;2.20;;
4055;SDS011;2043;52.184;8.690;2023-04-24T12:34:22;4.07;;;2.20;;
4055;SDS011;2043;52.184;8.690;2023-04-24T12:36:51;6.20;;;2.20;;
4055;SDS011;2043;52.184;8.690;2023-04-24T12:39:18;4.90;;;2.00;;
4055;SDS011;2043;52.184;8.690;2023-04-24T12:41:55;6.00;;;2.50;;
4055;SDS011;2043;52.184;8.690;2023-04-24T12:44:33;4.00;;;2.40;;
4055;SDS011;2043;52.184;8.690;2023-04-24T12:47:01;4.33;;;2.47;;
4055;SDS011;2043;52.184;8.690;2023-04-24T12:49:29;4.50;;;2.50;;
4055;SDS011;2043;52.184;8.690;2023-04-24T12:51:56;5.67;;;3.20;;
4055;SDS011;2043;52.184;8.690;2023-04-24T12:54:23;8.27;;;3.47;;
4055;SDS011;2043;52.184;8.690;2023-04-24T12:56:50;5.90;;;3.60;;
4055;SDS011;2043;52.184;8.690;2023-04-24T12:59:17;7.10;;;3.97;;
4055;SDS011;2043;52.184;8.690;2023-04-24T13:01:44;7.37;;;4.00;;
4055;SDS011;2043;52.184;8.690;2023-04-24T13:04:11;9.83;;;4.80;;
4055;SDS011;2043;52.184;8.690;2023-04-24T13:06:38;8.00;;;4.63;;
4055;SDS011;2043;52.184;8.690;2023-04-24T13:09:04;11.03;;;5.30;;
4055;SDS011;2043;52.184;8.690;2023-04-24T13:11:32;12.43;;;5.77;;
4055;SDS011;2043;52.184;8.690;2023-04-24T13:13:59;9.67;;;5.30;;
4055;SDS011;2043;52.184;8.690;2023-04-24T13:16:25;9.20;;;5.80;;
4055;SDS011;2043;52.184;8.690;2023-04-24T13:18:52;7.47;;;4.80;;
4055;SDS011;2043;52.184;8.690;2023-04-24T13:21:19;9.30;;;5.23;;
4055;SDS011;2043;52.184;8.690;2023-04-24T13:23:46;8.93;;;5.07;;
4055;SDS011;2043;52.184;8.690;2023-04-24T13:26:13;9.07;;;5.33;;
4055;SDS011;2043;52.184;8.690;2023-04-24T13:28:39;9.27;;;4.60;;
4055;SDS011;2043;52.184;8.690;2023-04-24T13:31:06;7.50;;;3.93;;
4055;SDS011;2043;52.184;8.690;2023-04-24T13:33:33;12.00;;;4.30;;
4055;SDS011;2043;52.184;8.690;2023-04-24T13:36:00;9.53;;;4.50;;
4055;SDS011;2043;52.184;8.690;2023-04-24T13:38:27;11.00;;;4.50;;
4055;SDS011;2043;52.184;8.690;2023-04-24T13:40:54;10.63;;;4.60;;
4055;SDS011;2043;52.184;8.690;2023-04-24T13:43:21;10.10;;;5.33;;
4055;SDS011;2043;52.184;8.690;2023-04-24T13:45:47;10.30;;;4.37;;
4055;SDS011;2043;52.184;8.690;2023-04-24T13:48:14;13.53;;;4.67;;
4055;SDS011;2043;52.184;8.690;2023-04-24T13:50:42;12.13;;;5.27;;
4055;SDS011;2043;52.184;8.690;2023-04-24T13:53:09;14.63;;;5.20;;
4055;SDS011;2043;52.184;8.690;2023-04-24T13:55:36;10.60;;;5.30;;
4055;SDS011;2043;52.184;8.690;2023-04-24T13:58:03;13.00;;;5.10;;
4055;SDS011;2043;52.184;8.690;2023-04-24T14:00:30;19.33;;;6.33;;
4055;SDS011;2043;52.184;8.690;2023-04-24T14:02:57;10.70;;;5.37;;
4055;SDS011;2043;52.184;8.690;2023-04-24T14:05:24;13.33;;;5.80;;
4055;SDS011;2043;52.184;8.690;2023-04-24T14:07:51;15.23;;;5.97;;
4055;SDS011;2043;52.184;8.690;2023-04-24T14:10:18;13.60;;;5.50;;
4055;SDS011;2043;52.184;8.690;2023-04-24T14:12:45;15.70;;;6.07;;
4055;SDS011;2043;52.184;8.690;2023-04-24T14:15:12;9.37;;;5.57;;
4055;SDS011;2043;52.184;8.690;2023-04-24T14:17:39;16.97;;;6.37;;
4055;SDS011;2043;52.184;8.690;2023-04-24T14:20:06;15.40;;;6.57;;
4055;SDS011;2043;52.184;8.690;2023-04-24T14:22:35;14.13;;;6.33;;
4055;SDS011;2043;52.184;8.690;2023-04-24T14:25:01;19.53;;;6.63;;
4055;SDS011;2043;52.184;8.690;2023-04-24T14:27:29;14.27;;;6.10;;
4055;SDS011;2043;52.184;8.690;2023-04-24T14:29:56;14.27;;;6.80;;
4055;SDS011;2043;52.184;8.690;2023-04-24T14:32:23;20.93;;;7.40;;
4055;SDS011;2043;52.184;8.690;2023-04-24T14:34:50;14.33;;;5.90;;
4055;SDS011;2043;52.184;8.690;2023-04-24T14:37:17;15.33;;;6.53;;
4055;SDS011;2043;52.184;8.690;2023-04-24T14:39:44;12.50;;;6.40;;
4055;SDS011;2043;52.184;8.690;2023-04-24T14:42:31;17.90;;;6.63;;
4055;SDS011;2043;52.184;8.690;2023-04-24T14:44:58;18.40;;;7.20;;
4055;SDS011;2043;52.184;8.690;2023-04-24T14:47:25;12.93;;;6.47;;
4055;SDS011;2043;52.184;8.690;2023-04-24T14:49:52;15.30;;;7.37;;
4055;SDS011;2043;52.184;8.690;2023-04-24T14:52:19;21.00;;;7.57;;
4055;SDS011;2043;52.184;8.690;2023-04-24T14:54:46;15.60;;;6.70;;
4055;SDS011;2043;52.184;8.690;2023-04-24T14:57:13;19.07;;;7.60;;
4055;SDS011;2043;52.184;8.690;2023-04-24T14:59:41;17.30;;;7.33;;
4055;SDS011;2043;52.184;8.690;2023-04-24T15:02:08;15.40;;;7.60;;
4055;SDS011;2043;52.184;8.690;2023-04-24T15:04:39;15.00;;;7.20;;
4055;SDS011;2043;52.184;8.690;2023-04-24T15:07:07;19.53;;;7.20;;
4055;SDS011;2043;52.184;8.690;2023-04-24T15:09:34;13.90;;;6.37;;
4055;SDS011;2043;52.184;8.690;2023-04-24T15:12:01;12.27;;;6.47;;
4055;SDS011;2043;52.184;8.690;2023-04-24T15:14:28;23.50;;;6.30;;
4055;SDS011;2043;52.184;8.690;2023-04-24T15:16:55;17.20;;;7.30;;
4055;SDS011;2043;52.184;8.690;2023-04-24T15:19:21;19.83;;;7.67;;
4055;SDS011;2043;52.184;8.690;2023-04-24T15:21:48;17.33;;;6.70;;
4055;SDS011;2043;52.184;8.690;2023-04-24T15:24:16;16.97;;;7.50;;
4055;SDS011;2043;52.184;8.690;2023-04-24T15:26:42;19.93;;;8.20;;